createdAt,value
2018-10-11T00:02:12.369Z,1.97
2018-10-11T00:04:41.049Z,3.17
2018-10-11T00:07:09.709Z,2.57
2018-10-11T00:09:38.370Z,1.77
2018-10-11T00:12:07.150Z,2.33
2018-10-11T00:14:35.784Z,3.30
2018-10-11T00:17:04.485Z,3.47
2018-10-11T00:19:33.136Z,1.87
2018-10-11T00:22:01.780Z,2.77
2018-10-11T00:24:30.429Z,2.00
2018-10-11T00:26:59.069Z,3.33
2018-10-11T00:29:27.723Z,1.83
2018-10-11T00:31:56.381Z,3.27
2018-10-11T00:34:25.040Z,3.07
2018-10-11T00:36:54.136Z,1.60
2018-10-11T00:39:22.862Z,2.23
2018-10-11T00:41:51.512Z,6.70
2018-10-11T00:44:21.437Z,1.93
2018-10-11T00:46:50.121Z,4.30
2018-10-11T00:49:18.817Z,3.93
2018-10-11T00:51:47.466Z,2.80
2018-10-11T00:54:16.097Z,1.73
2018-10-11T00:56:44.756Z,3.50
2018-10-11T00:59:13.383Z,4.90
2018-10-11T01:01:42.233Z,1.53
2018-10-11T01:04:11.430Z,1.37
2018-10-11T01:06:40.196Z,5.23
2018-10-11T01:09:10.541Z,4.27
2018-10-11T01:11:39.624Z,3.90
2018-10-11T01:14:08.657Z,2.50
2018-10-11T01:16:37.296Z,3.10
2018-10-11T01:19:05.968Z,2.17
2018-10-11T01:21:34.609Z,5.93
2018-10-11T01:24:03.263Z,3.40
2018-10-11T01:26:31.943Z,1.30
2018-10-11T01:29:01.180Z,2.77
2018-10-11T01:31:29.827Z,5.37
2018-10-11T01:33:58.465Z,3.03
2018-10-11T01:36:27.120Z,4.87
2018-10-11T01:38:55.796Z,4.17
2018-10-11T01:41:24.474Z,6.00
2018-10-11T01:43:53.160Z,3.10
2018-10-11T01:46:21.840Z,2.63
2018-10-11T01:48:50.535Z,4.80
2018-10-11T01:51:19.246Z,2.93
2018-10-11T01:53:47.943Z,2.67
2018-10-11T01:56:16.634Z,2.20
2018-10-11T01:58:45.298Z,2.07
2018-10-11T02:01:14.001Z,1.33
2018-10-11T02:03:42.652Z,1.97
2018-10-11T02:06:11.329Z,4.70
2018-10-11T02:08:40.016Z,1.47
2018-10-11T02:11:08.724Z,3.40
2018-10-11T02:13:37.388Z,4.87
2018-10-11T02:16:06.073Z,5.03
2018-10-11T02:18:34.780Z,2.80
2018-10-11T02:21:03.442Z,2.47
2018-10-11T02:23:32.076Z,1.93
2018-10-11T02:26:00.725Z,4.47
2018-10-11T02:28:29.371Z,3.77
2018-10-11T02:30:58.038Z,2.67
2018-10-11T02:33:26.670Z,2.70
2018-10-11T02:35:55.792Z,1.90
2018-10-11T02:38:24.431Z,3.57
2018-10-11T02:40:53.076Z,4.10
2018-10-11T02:43:21.742Z,3.63
2018-10-11T02:45:50.408Z,4.10
2018-10-11T02:48:19.052Z,2.57
2018-10-11T02:50:47.694Z,1.97
2018-10-11T02:53:16.324Z,1.90
2018-10-11T02:55:45.156Z,4.67
2018-10-11T02:58:24.628Z,1.97
2018-10-11T03:00:53.616Z,3.87
2018-10-11T03:03:25.884Z,1.60
2018-10-11T03:05:54.800Z,1.67
2018-10-11T03:08:25.178Z,1.30
2018-10-11T03:10:54.103Z,1.33
2018-10-11T03:13:22.774Z,2.03
2018-10-11T03:15:51.462Z,2.57
2018-10-11T03:18:20.114Z,2.53
2018-10-11T03:20:48.869Z,5.63
2018-10-11T03:23:17.556Z,2.07
2018-10-11T03:25:46.493Z,5.83
2018-10-11T03:28:16.477Z,1.30
2018-10-11T03:30:45.172Z,2.87
2018-10-11T03:33:14.504Z,2.03
2018-10-11T03:35:43.988Z,2.77
2018-10-11T03:38:12.863Z,2.47
2018-10-11T03:40:41.712Z,1.47
2018-10-11T03:43:10.360Z,2.00
2018-10-11T03:45:39.036Z,3.63
2018-10-11T03:48:07.701Z,1.70
2018-10-11T03:50:36.365Z,2.73
2018-10-11T03:53:05.053Z,5.73
2018-10-11T03:55:33.676Z,1.33
2018-10-11T03:58:02.337Z,5.63
2018-10-11T04:00:31.588Z,4.40
2018-10-11T04:03:00.252Z,3.30
2018-10-11T04:05:28.881Z,1.50
2018-10-11T04:07:57.529Z,1.67
2018-10-11T04:10:26.219Z,1.93
2018-10-11T04:12:54.881Z,2.87
2018-10-11T04:15:23.550Z,5.10
2018-10-11T04:17:52.188Z,2.17
2018-10-11T04:20:20.847Z,1.03
2018-10-11T04:22:49.537Z,2.57
2018-10-11T04:25:18.209Z,1.63
2018-10-11T04:27:46.841Z,3.17
2018-10-11T04:30:15.513Z,1.47
2018-10-11T04:32:44.197Z,1.30
2018-10-11T04:35:12.924Z,4.07
2018-10-11T04:37:41.567Z,3.13
2018-10-11T04:40:10.233Z,1.50
2018-10-11T04:42:38.923Z,1.33
2018-10-11T04:45:07.560Z,3.20
2018-10-11T04:47:36.205Z,1.00
2018-10-11T04:50:04.941Z,3.17
2018-10-11T04:52:33.600Z,3.10
2018-10-11T04:55:03.108Z,2.20
2018-10-11T04:57:34.768Z,3.20
2018-10-11T05:00:04.877Z,6.47
2018-10-11T05:02:37.563Z,1.50
2018-10-11T05:05:06.377Z,2.10
2018-10-11T05:07:35.103Z,2.30
2018-10-11T05:10:05.804Z,1.63
2018-10-11T05:12:39.911Z,3.77
2018-10-11T05:15:08.696Z,1.30
2018-10-11T05:17:37.472Z,0.60
2018-10-11T05:20:06.867Z,0.97
2018-10-11T05:22:35.633Z,0.77
2018-10-11T05:25:04.408Z,0.60
2018-10-11T05:27:33.125Z,1.33
2018-10-11T05:30:04.842Z,4.47
2018-10-11T05:32:36.856Z,2.33
2018-10-11T05:35:06.000Z,1.63
2018-10-11T05:37:34.984Z,4.70
2018-10-11T05:40:03.721Z,2.50
2018-10-11T05:42:32.681Z,1.90
2018-10-11T05:45:08.542Z,1.40
2018-10-11T05:47:37.432Z,3.80
2018-10-11T05:50:06.354Z,2.00
2018-10-11T05:52:35.284Z,1.67
2018-10-11T05:55:04.131Z,2.77
2018-10-11T05:57:32.993Z,0.60
2018-10-11T06:00:01.929Z,5.00
2018-10-11T06:02:30.599Z,2.10
2018-10-11T06:04:59.383Z,1.17
2018-10-11T06:07:28.304Z,0.87
2018-10-11T06:09:57.083Z,0.90
2018-10-11T06:12:25.885Z,1.30
2018-10-11T06:14:54.750Z,3.37
2018-10-11T06:17:23.481Z,1.73
2018-10-11T06:19:52.209Z,4.00
2018-10-11T06:22:20.943Z,1.37
2018-10-11T06:24:49.712Z,5.50
2018-10-11T06:27:18.412Z,2.97
2018-10-11T06:29:47.209Z,1.43
2018-10-11T06:32:15.924Z,1.43
2018-10-11T06:34:44.769Z,1.00
2018-10-11T06:37:13.412Z,3.80
2018-10-11T06:39:42.168Z,5.93
2018-10-11T06:42:10.854Z,1.27
2018-10-11T06:44:39.620Z,2.70
2018-10-11T06:47:08.882Z,2.60
2018-10-11T06:49:37.620Z,2.73
2018-10-11T06:52:07.104Z,2.13
2018-10-11T06:54:35.844Z,1.83
2018-10-11T06:57:04.467Z,0.87
2018-10-11T06:59:33.160Z,3.07
2018-10-11T07:02:01.861Z,5.93
2018-10-11T07:04:32.459Z,2.77
2018-10-11T07:07:01.173Z,1.70
2018-10-11T07:09:29.824Z,1.70
2018-10-11T07:11:58.507Z,2.80
2018-10-11T07:14:27.163Z,0.50
2018-10-11T07:16:55.809Z,1.43
2018-10-11T07:19:24.512Z,0.87
2018-10-11T07:21:53.136Z,2.60
2018-10-11T07:24:21.786Z,2.43
2018-10-11T07:26:50.444Z,0.60
2018-10-11T07:29:19.100Z,1.77
2018-10-11T07:31:47.815Z,1.60
2018-10-11T07:34:16.485Z,0.90
2018-10-11T07:36:45.129Z,3.13
2018-10-11T07:39:14.041Z,1.63
2018-10-11T07:41:43.109Z,5.43
2018-10-11T07:44:11.826Z,1.97
2018-10-11T07:46:40.448Z,3.07
2018-10-11T07:49:09.120Z,1.63
2018-10-11T07:51:38.044Z,1.23
2018-10-11T07:54:06.781Z,1.53
2018-10-11T07:56:35.420Z,1.53
2018-10-11T07:59:04.051Z,1.37
2018-10-11T08:01:32.721Z,3.67
2018-10-11T08:04:01.386Z,4.00
2018-10-11T08:06:30.085Z,3.90
2018-10-11T08:08:58.767Z,0.80
2018-10-11T08:11:27.617Z,2.80
2018-10-11T08:13:56.180Z,2.13
2018-10-11T08:16:24.914Z,1.87
2018-10-11T08:18:53.622Z,3.37
2018-10-11T08:21:22.240Z,2.60
2018-10-11T08:23:50.892Z,3.17
2018-10-11T08:26:19.869Z,5.00
2018-10-11T08:28:48.232Z,2.83
2018-10-11T08:31:16.860Z,2.97
2018-10-11T08:33:45.522Z,2.93
2018-10-11T08:36:14.201Z,4.47
2018-10-11T08:38:42.957Z,2.93
2018-10-11T08:41:11.588Z,2.97
2018-10-11T08:43:40.342Z,2.47
2018-10-11T08:46:09.033Z,3.60
2018-10-11T08:48:38.640Z,3.57
2018-10-11T08:51:07.324Z,8.80
2018-10-11T08:53:35.993Z,6.17
2018-10-11T08:56:04.794Z,5.17
2018-10-11T08:58:33.387Z,4.33
2018-10-11T09:01:02.077Z,5.97
2018-10-11T09:03:30.846Z,3.53
2018-10-11T09:05:59.444Z,5.17
2018-10-11T09:08:28.608Z,5.33
2018-10-11T09:10:57.326Z,5.47
2018-10-11T09:13:25.964Z,7.30
2018-10-11T09:15:54.603Z,5.03
2018-10-11T09:18:23.265Z,1.87
2018-10-11T09:20:51.900Z,6.00
2018-10-11T09:23:20.614Z,6.80
2018-10-11T09:25:49.252Z,5.53
2018-10-11T09:28:17.885Z,3.93
2018-10-11T09:30:46.528Z,7.47
2018-10-11T09:33:15.182Z,5.03
2018-10-11T09:35:43.829Z,4.30
2018-10-11T09:38:12.482Z,6.20
2018-10-11T09:40:41.219Z,9.47
2018-10-11T09:43:09.992Z,5.53
2018-10-11T09:45:38.576Z,5.43
2018-10-11T09:48:07.252Z,9.20
2018-10-11T09:50:35.875Z,5.13
2018-10-11T09:53:04.574Z,5.47
2018-10-11T09:55:33.217Z,5.37
2018-10-11T09:58:01.886Z,4.73
2018-10-11T10:02:41.296Z,10.13
2018-10-11T10:05:10.168Z,7.27
2018-10-11T10:07:38.940Z,6.87
2018-10-11T10:10:07.951Z,6.57
2018-10-11T10:12:36.638Z,10.90
2018-10-11T10:15:05.551Z,9.23
2018-10-11T10:17:34.598Z,8.77
2018-10-11T10:20:03.343Z,7.90
2018-10-11T10:22:31.969Z,8.07
2018-10-11T10:25:00.633Z,7.00
2018-10-11T10:27:29.375Z,11.10
2018-10-11T10:29:57.994Z,8.60
2018-10-11T10:32:26.670Z,5.90
2018-10-11T10:34:55.460Z,8.80
2018-10-11T10:37:24.169Z,5.93
2018-10-11T10:39:52.899Z,8.43
2018-10-11T10:42:21.543Z,11.03
2018-10-11T10:44:50.207Z,9.63
2018-10-11T10:47:18.905Z,9.60
2018-10-11T10:49:47.552Z,9.80
2018-10-11T10:52:16.214Z,7.80
2018-10-11T10:54:44.832Z,11.17
2018-10-11T10:57:13.501Z,10.97
2018-10-11T10:59:42.142Z,14.20
2018-10-11T11:02:10.778Z,8.47
2018-10-11T11:04:39.448Z,7.00
2018-10-11T11:07:08.174Z,6.77
2018-10-11T11:09:36.797Z,10.30
2018-10-11T11:12:05.534Z,12.90
2018-10-11T11:14:34.218Z,9.80
2018-10-11T11:17:02.852Z,17.17
2018-10-11T11:19:31.540Z,19.23
2018-10-11T11:22:00.196Z,13.90
2018-10-11T11:24:28.846Z,14.77
2018-10-11T11:26:57.476Z,13.53
2018-10-11T11:29:26.121Z,11.97
2018-10-11T11:31:54.757Z,13.40
2018-10-11T11:34:23.419Z,10.03
2018-10-11T11:36:52.056Z,12.33
2018-10-11T11:39:20.692Z,13.47
2018-10-11T11:41:49.325Z,13.93
2018-10-11T11:44:17.965Z,12.27
2018-10-11T11:46:46.603Z,15.80
2018-10-11T11:49:15.267Z,13.17
2018-10-11T11:51:43.900Z,9.73
2018-10-11T11:54:19.305Z,8.17
2018-10-11T11:56:48.268Z,10.03
2018-10-11T11:59:16.970Z,13.77
2018-10-11T12:01:45.688Z,9.80
2018-10-11T12:04:14.324Z,11.47
2018-10-11T12:06:43.062Z,12.70
2018-10-11T12:09:13.216Z,10.67
2018-10-11T12:11:42.320Z,12.20
2018-10-11T12:14:11.012Z,8.57
2018-10-11T12:16:39.788Z,8.53
2018-10-11T12:19:10.052Z,9.00
2018-10-11T12:21:39.044Z,10.13
2018-10-11T12:24:07.834Z,11.13
2018-10-11T12:26:36.501Z,11.13
2018-10-11T12:29:05.228Z,8.53
2018-10-11T12:31:33.876Z,11.27
2018-10-11T12:34:02.549Z,9.00
2018-10-11T12:36:31.301Z,8.00
2018-10-11T12:38:59.976Z,8.07
2018-10-11T12:41:28.686Z,9.43
2018-10-11T12:43:57.330Z,10.03
2018-10-11T12:46:25.996Z,13.33
2018-10-11T12:48:54.636Z,10.23
2018-10-11T12:51:23.364Z,6.43
2018-10-11T12:53:51.988Z,10.40
2018-10-11T12:56:20.817Z,10.07
2018-10-11T12:58:49.460Z,8.30
2018-10-11T13:01:20.468Z,8.13
2018-10-11T13:03:46.785Z,9.30
2018-10-11T13:06:16.341Z,8.20
2018-10-11T13:08:45.024Z,11.33
2018-10-11T13:11:13.660Z,9.57
2018-10-11T13:13:46.955Z,8.17
2018-10-11T13:16:11.198Z,10.13
2018-10-11T13:18:39.937Z,10.43
2018-10-11T13:21:08.670Z,5.57
2018-10-11T13:23:37.331Z,11.50
2018-10-11T13:26:05.977Z,9.43
2018-10-11T13:28:34.622Z,11.17
2018-10-11T13:31:03.304Z,11.30
2018-10-11T13:33:31.949Z,9.33
2018-10-11T13:36:00.644Z,12.27
2018-10-11T13:38:29.304Z,9.07
2018-10-11T13:41:02.269Z,7.27
2018-10-11T13:43:26.612Z,11.17
2018-10-11T13:45:59.022Z,8.83
2018-10-11T13:48:23.961Z,8.60
2018-10-11T13:50:52.592Z,8.80
2018-10-11T13:53:23.687Z,14.87
2018-10-11T13:55:53.617Z,8.07
2018-10-11T13:58:18.636Z,10.77
2018-10-11T14:00:47.276Z,8.90
2018-10-11T14:03:15.904Z,10.33
2018-10-11T14:05:44.574Z,10.23
2018-10-11T14:08:13.272Z,7.27
2018-10-11T14:10:42.028Z,11.03
2018-10-11T14:13:14.266Z,5.87
2018-10-11T14:15:39.259Z,10.30
2018-10-11T14:18:11.273Z,7.40
2018-10-11T14:20:36.606Z,10.07
2018-10-11T14:23:05.909Z,9.43
2018-10-11T14:25:34.549Z,8.67
2018-10-11T14:28:03.485Z,8.37
2018-10-11T14:30:32.145Z,8.50
2018-10-11T14:33:00.800Z,9.03
2018-10-11T14:35:29.484Z,8.73
2018-10-11T14:37:58.122Z,8.17
2018-10-11T14:40:26.784Z,12.20
2018-10-11T14:42:55.409Z,10.60
2018-10-11T14:45:24.430Z,9.57
2018-10-11T14:47:53.073Z,9.13
2018-10-11T14:50:21.773Z,9.50
2018-10-11T14:52:50.418Z,16.40
2018-10-11T14:55:19.596Z,9.13
2018-10-11T14:57:48.285Z,11.50
2018-10-11T15:00:16.942Z,7.63
2018-10-11T15:02:45.640Z,7.93
2018-10-11T15:05:14.318Z,11.43
2018-10-11T15:07:42.980Z,8.43
2018-10-11T15:10:11.630Z,11.43
2018-10-11T15:12:40.316Z,14.80
2018-10-11T15:15:08.975Z,10.53
2018-10-11T15:17:37.673Z,9.80
2018-10-11T15:20:06.391Z,13.27
2018-10-11T15:22:35.047Z,12.43
2018-10-11T15:25:04.102Z,13.17
2018-10-11T15:27:32.744Z,10.03
2018-10-11T15:30:01.365Z,13.47
2018-10-11T15:32:30.025Z,14.07
2018-10-11T15:34:58.682Z,11.60
2018-10-11T15:37:27.357Z,12.60
2018-10-11T15:39:56.000Z,9.33
2018-10-11T15:42:24.650Z,15.80
2018-10-11T15:44:53.316Z,11.93
2018-10-11T15:47:21.982Z,11.30
2018-10-11T15:49:50.625Z,10.40
2018-10-11T15:52:19.359Z,14.67
2018-10-11T15:54:48.058Z,16.53
2018-10-11T15:57:16.732Z,16.23
2018-10-11T15:59:45.381Z,9.93
2018-10-11T16:02:14.030Z,19.20
2018-10-11T16:04:42.728Z,14.50
2018-10-11T16:07:11.405Z,15.77
2018-10-11T16:09:40.060Z,12.20
2018-10-11T16:12:08.729Z,18.60
2018-10-11T16:14:37.377Z,12.43
2018-10-11T16:17:06.048Z,11.73
2018-10-11T16:19:34.712Z,16.80
2018-10-11T16:22:03.376Z,12.50
2018-10-11T16:24:32.017Z,16.77
2018-10-11T16:27:00.690Z,10.63
2018-10-11T16:29:29.316Z,15.87
2018-10-11T16:31:58.006Z,15.63
2018-10-11T16:34:26.721Z,15.53
2018-10-11T16:36:55.354Z,20.73
2018-10-11T16:39:23.994Z,15.50
2018-10-11T16:41:52.654Z,14.70
2018-10-11T16:44:21.308Z,17.63
2018-10-11T16:46:50.025Z,13.83
2018-10-11T16:49:18.728Z,12.23
2018-10-11T16:51:47.371Z,17.83
2018-10-11T16:54:16.071Z,16.73
2018-10-11T16:56:44.748Z,15.40
2018-10-11T16:59:13.441Z,14.57
2018-10-11T17:01:42.133Z,16.53
2018-10-11T17:04:10.849Z,19.23
2018-10-11T17:06:39.472Z,16.60
2018-10-11T17:09:09.977Z,16.37
2018-10-11T17:11:38.701Z,15.20
2018-10-11T17:14:07.372Z,15.43
2018-10-11T17:16:36.121Z,14.17
2018-10-11T17:19:04.909Z,16.33
2018-10-11T17:21:33.660Z,13.97
2018-10-11T17:24:02.225Z,14.40
2018-10-11T17:26:30.930Z,16.37
2018-10-11T17:28:59.571Z,14.07
2018-10-11T17:31:28.235Z,14.23
2018-10-11T17:33:56.918Z,19.90
2018-10-11T17:36:25.541Z,21.83
2018-10-11T17:38:54.209Z,15.73
2018-10-11T17:41:22.832Z,15.23
2018-10-11T17:43:51.505Z,12.63
2018-10-11T17:46:20.171Z,15.60
2018-10-11T17:48:48.800Z,15.63
2018-10-11T17:51:17.495Z,15.57
2018-10-11T17:53:46.150Z,14.67
2018-10-11T17:56:14.780Z,11.90
2018-10-11T17:58:43.429Z,15.90
2018-10-11T18:01:12.061Z,19.97
2018-10-11T18:03:40.745Z,16.70
2018-10-11T18:06:09.417Z,14.43
2018-10-11T18:08:38.211Z,12.97
2018-10-11T18:11:07.187Z,17.10
2018-10-11T18:13:36.011Z,15.37
2018-10-11T18:16:04.725Z,11.57
2018-10-11T18:18:33.387Z,19.57
2018-10-11T18:21:02.043Z,17.90
2018-10-11T18:23:30.677Z,18.70
2018-10-11T18:25:59.328Z,16.87
2018-10-11T18:28:27.951Z,15.67
2018-10-11T18:30:56.617Z,13.43
2018-10-11T18:33:25.317Z,12.00
2018-10-11T18:35:53.953Z,14.73
2018-10-11T18:38:22.618Z,15.17
2018-10-11T18:40:51.250Z,17.57
2018-10-11T18:43:19.929Z,17.23
2018-10-11T18:45:48.596Z,17.87
2018-10-11T18:48:17.242Z,15.10
2018-10-11T18:50:45.961Z,13.23
2018-10-11T18:53:14.598Z,13.50
2018-10-11T18:55:43.289Z,15.00
2018-10-11T18:58:11.932Z,10.87
2018-10-11T19:00:40.581Z,14.30
2018-10-11T19:03:09.253Z,8.93
2018-10-11T19:05:37.879Z,15.70
2018-10-11T19:08:06.514Z,12.30
2018-10-11T19:10:35.157Z,12.40
2018-10-11T19:13:03.990Z,11.30
2018-10-11T19:15:32.718Z,9.23
2018-10-11T19:18:01.364Z,8.90
2018-10-11T19:20:30.046Z,16.23
2018-10-11T19:22:58.677Z,8.63
2018-10-11T19:25:27.349Z,7.93
2018-10-11T19:27:55.996Z,13.20
2018-10-11T19:30:31.555Z,11.80
2018-10-11T19:33:10.168Z,11.47
2018-10-11T19:35:40.002Z,9.87
2018-10-11T19:38:08.838Z,8.57
2018-10-11T19:40:38.868Z,11.77
2018-10-11T19:43:11.328Z,9.13
2018-10-11T19:45:40.344Z,13.00
2018-10-11T19:48:14.335Z,12.37
2018-10-11T19:50:44.301Z,9.37
2018-10-11T19:53:13.629Z,7.53
2018-10-11T19:55:42.416Z,13.23
2018-10-11T19:58:11.072Z,10.43
2018-10-11T20:00:39.716Z,10.53
2018-10-11T20:03:08.417Z,8.77
2018-10-11T20:05:37.048Z,10.63
2018-10-11T20:08:05.803Z,8.10
2018-10-11T20:10:34.551Z,9.23
2018-10-11T20:13:03.230Z,9.07
2018-10-11T20:15:32.023Z,8.07
2018-10-11T20:18:03.901Z,6.47
2018-10-11T20:20:29.420Z,6.43
2018-10-11T20:22:58.092Z,8.47
2018-10-11T20:25:26.717Z,14.00
2018-10-11T20:27:55.422Z,7.40
2018-10-11T20:30:24.072Z,5.83
2018-10-11T20:32:52.759Z,4.20
2018-10-11T20:35:21.789Z,8.53
2018-10-11T20:37:50.537Z,6.43
2018-10-11T20:40:19.191Z,6.87
2018-10-11T20:42:47.925Z,5.43
2018-10-11T20:45:16.590Z,8.33
2018-10-11T20:47:45.217Z,10.10
2018-10-11T20:50:13.879Z,8.03
2018-10-11T20:52:42.559Z,9.17
2018-10-11T20:55:11.221Z,7.60
2018-10-11T20:57:39.888Z,6.07
2018-10-11T21:00:09.336Z,5.47
2018-10-11T21:02:38.036Z,6.43
2018-10-11T21:05:06.728Z,5.60
2018-10-11T21:07:35.387Z,5.00
2018-10-11T21:10:04.072Z,6.13
2018-10-11T21:12:32.719Z,4.47
2018-10-11T21:15:01.368Z,3.13
2018-10-11T21:17:30.089Z,6.37
2018-10-11T21:19:58.795Z,5.17
2018-10-11T21:22:27.392Z,6.70
2018-10-11T21:24:56.049Z,4.20
2018-10-11T21:27:24.688Z,4.50
2018-10-11T21:29:53.322Z,5.50
2018-10-11T21:32:21.944Z,4.73
2018-10-11T21:34:50.662Z,5.47
2018-10-11T21:37:19.277Z,5.60
2018-10-11T21:39:47.923Z,5.67
2018-10-11T21:42:16.557Z,3.37
2018-10-11T21:44:45.201Z,5.90
2018-10-11T21:47:13.872Z,3.97
2018-10-11T21:49:42.575Z,8.57
2018-10-11T21:52:11.555Z,9.27
2018-10-11T21:54:40.894Z,2.90
2018-10-11T21:57:09.533Z,2.90
2018-10-11T21:59:38.237Z,7.83
2018-10-11T22:02:06.936Z,2.80
2018-10-11T22:04:36.344Z,4.27
2018-10-11T22:07:05.096Z,5.00
2018-10-11T22:09:33.740Z,2.67
2018-10-11T22:12:02.377Z,9.23
2018-10-11T22:14:31.136Z,7.07
2018-10-11T22:16:59.800Z,6.40
2018-10-11T22:19:28.455Z,4.57
2018-10-11T22:21:57.116Z,2.53
2018-10-11T22:24:25.825Z,5.03
2018-10-11T22:26:54.475Z,3.53
2018-10-11T22:29:23.132Z,5.20
2018-10-11T22:31:51.792Z,4.10
2018-10-11T22:34:20.448Z,5.00
2018-10-11T22:36:49.200Z,2.90
2018-10-11T22:39:17.839Z,7.77
2018-10-11T22:41:46.568Z,5.90
2018-10-11T22:44:15.212Z,2.63
2018-10-11T22:46:43.864Z,3.57
2018-10-11T22:49:12.557Z,3.80
2018-10-11T22:51:41.212Z,3.17
2018-10-11T22:54:10.492Z,4.00
2018-10-11T22:56:39.155Z,6.20
2018-10-11T22:59:07.837Z,4.37
2018-10-11T23:01:36.480Z,5.90
2018-10-11T23:04:05.123Z,4.50
2018-10-11T23:06:33.800Z,5.23
2018-10-11T23:09:02.605Z,2.90
2018-10-11T23:11:31.230Z,4.37
2018-10-11T23:13:59.889Z,4.33
2018-10-11T23:16:28.511Z,5.10
2018-10-11T23:18:57.140Z,6.17
2018-10-11T23:21:25.753Z,4.00
2018-10-11T23:23:54.378Z,4.50
2018-10-11T23:26:23.035Z,3.07
2018-10-11T23:28:51.693Z,3.53
2018-10-11T23:31:20.342Z,3.90
2018-10-11T23:33:49.036Z,4.13
2018-10-11T23:36:17.699Z,3.80
2018-10-11T23:38:46.328Z,4.57
2018-10-11T23:41:14.961Z,5.83
2018-10-11T23:43:43.577Z,6.00
2018-10-11T23:46:12.336Z,8.80
2018-10-11T23:48:41.004Z,4.87
2018-10-11T23:51:09.712Z,5.23
2018-10-11T23:53:38.467Z,8.40
2018-10-11T23:56:07.297Z,12.83
2018-10-11T23:58:35.949Z,6.40
